createdAt,value
2022-09-07T00:01:04.197Z,99.90
2022-09-07T00:03:31.290Z,99.90
2022-09-07T00:05:58.267Z,99.90
2022-09-07T00:08:27.344Z,99.90
2022-09-07T00:11:02.083Z,99.90
2022-09-07T00:13:34.044Z,99.90
2022-09-07T00:16:18.232Z,99.90
2022-09-07T00:18:46.463Z,99.90
2022-09-07T00:21:16.769Z,99.90
2022-09-07T00:23:44.350Z,99.90
2022-09-07T00:26:15.843Z,99.90
2022-09-07T00:28:43.909Z,99.90
2022-09-07T00:31:14.671Z,99.90
2022-09-07T00:33:42.229Z,99.90
2022-09-07T00:36:09.165Z,99.90
2022-09-07T00:38:36.921Z,99.90
2022-09-07T00:41:04.267Z,99.90
2022-09-07T00:43:42.876Z,99.90
2022-09-07T00:46:20.087Z,99.90
2022-09-07T00:49:12.055Z,99.90
2022-09-07T00:51:57.845Z,99.90
2022-09-07T00:54:36.113Z,99.90
2022-09-07T00:57:04.241Z,99.90
2022-09-07T00:59:43.721Z,99.90
2022-09-07T01:02:12.709Z,99.90
2022-09-07T01:04:40.680Z,99.90
2022-09-07T01:07:08.791Z,99.90
2022-09-07T01:09:36.483Z,99.90
2022-09-07T01:12:04.586Z,99.90
2022-09-07T01:14:39.879Z,99.90
2022-09-07T01:17:12.422Z,99.90
2022-09-07T01:20:21.445Z,99.90
2022-09-07T01:23:25.002Z,99.90
2022-09-07T01:26:16.667Z,99.90
2022-09-07T01:28:47.234Z,99.90
2022-09-07T01:31:49.513Z,99.90
2022-09-07T01:34:26.102Z,99.90
2022-09-07T01:37:32.682Z,99.90
2022-09-07T01:40:22.912Z,99.90
2022-09-07T01:43:01.163Z,99.90
2022-09-07T01:45:34.788Z,99.90
2022-09-07T01:48:07.328Z,99.90
2022-09-07T01:50:57.828Z,99.90
2022-09-07T01:53:39.911Z,99.90
2022-09-07T01:56:15.530Z,99.90
2022-09-07T01:59:01.622Z,99.90
2022-09-07T02:01:47.071Z,99.90
2022-09-07T02:04:24.622Z,99.90
2022-09-07T02:07:05.475Z,99.90
2022-09-07T02:09:59.287Z,99.90
2022-09-07T02:12:44.326Z,99.90
2022-09-07T02:15:28.151Z,99.90
2022-09-07T02:18:04.376Z,99.90
2022-09-07T02:20:37.594Z,99.90
2022-09-07T02:23:20.121Z,99.90
2022-09-07T02:25:55.814Z,99.90
2022-09-07T02:28:29.192Z,99.90
2022-09-07T02:30:56.309Z,99.90
2022-09-07T02:33:23.331Z,99.90
2022-09-07T02:35:51.198Z,99.90
2022-09-07T02:38:19.103Z,99.90
2022-09-07T02:41:00.264Z,99.90
2022-09-07T02:43:29.445Z,99.90
2022-09-07T02:46:22.411Z,99.90
2022-09-07T02:49:26.437Z,99.90
2022-09-07T02:52:18.180Z,99.90
2022-09-07T02:55:15.888Z,99.90
2022-09-07T02:57:45.419Z,99.90
2022-09-07T03:00:20.818Z,99.90
2022-09-07T03:03:23.825Z,99.90
2022-09-07T03:06:38.252Z,99.90
2022-09-07T03:09:15.047Z,99.90
2022-09-07T03:11:42.110Z,99.90
2022-09-07T03:14:20.345Z,99.90
2022-09-07T03:16:50.798Z,99.90
2022-09-07T03:19:18.614Z,99.90
2022-09-07T03:21:45.606Z,99.90
2022-09-07T03:24:12.772Z,99.90
2022-09-07T03:26:45.108Z,99.90
2022-09-07T03:29:12.607Z,99.90
2022-09-07T03:31:39.387Z,99.90
2022-09-07T03:34:07.192Z,99.90
2022-09-07T03:36:34.577Z,99.90
2022-09-07T03:39:01.426Z,99.90
2022-09-07T03:41:29.117Z,99.90
2022-09-07T03:43:56.259Z,99.90
2022-09-07T03:46:23.136Z,99.90
2022-09-07T03:48:50.426Z,99.90
2022-09-07T03:51:18.970Z,99.90
2022-09-07T03:53:47.300Z,99.90
2022-09-07T03:56:21.893Z,99.90
2022-09-07T03:58:50.115Z,99.90
2022-09-07T04:01:21.231Z,99.90
2022-09-07T04:03:48.585Z,99.90
2022-09-07T04:06:16.861Z,99.90
2022-09-07T04:08:44.861Z,99.90
2022-09-07T04:11:18.294Z,99.90
2022-09-07T04:13:46.025Z,99.90
2022-09-07T04:16:22.109Z,99.90
2022-09-07T04:18:50.293Z,99.90
2022-09-07T04:21:18.377Z,99.90
2022-09-07T04:23:45.437Z,99.90
2022-09-07T04:26:18.326Z,99.90
2022-09-07T04:28:45.993Z,99.90
2022-09-07T04:31:15.880Z,99.90
2022-09-07T04:33:44.876Z,99.90
2022-09-07T04:36:12.892Z,99.90
2022-09-07T04:38:40.030Z,99.90
2022-09-07T04:41:18.668Z,99.90
2022-09-07T04:43:46.900Z,99.90
2022-09-07T04:46:21.958Z,99.90
2022-09-07T04:48:51.124Z,99.90
2022-09-07T04:51:19.217Z,99.90
2022-09-07T04:53:50.090Z,99.90
2022-09-07T04:56:18.759Z,99.90
2022-09-07T04:58:46.753Z,99.90
2022-09-07T05:01:17.753Z,99.90
2022-09-07T05:03:46.130Z,99.90
2022-09-07T05:06:14.889Z,99.90
2022-09-07T05:08:45.710Z,99.90
2022-09-07T05:11:14.627Z,99.90
2022-09-07T05:13:41.586Z,99.90
2022-09-07T05:16:21.369Z,99.90
2022-09-07T05:18:55.255Z,99.90
2022-09-07T05:21:25.983Z,99.90
2022-09-07T05:23:56.125Z,99.90
2022-09-07T05:26:30.217Z,99.90
2022-09-07T05:31:45.905Z,99.90
2022-09-07T05:36:55.620Z,99.90
2022-09-07T05:39:22.454Z,99.90
2022-09-07T05:41:49.619Z,99.90
2022-09-07T05:47:04.128Z,99.90
2022-09-07T05:49:32.337Z,99.90
2022-09-07T05:51:59.144Z,99.90
2022-09-07T05:54:26.113Z,99.90
2022-09-07T05:56:52.893Z,99.90
2022-09-07T05:59:19.730Z,99.90
2022-09-07T06:01:46.566Z,99.90
2022-09-07T06:04:13.384Z,99.90
2022-09-07T06:06:40.210Z,99.90
2022-09-07T06:09:07.919Z,99.90
2022-09-07T06:11:36.531Z,99.90
2022-09-07T06:14:03.303Z,99.90
2022-09-07T06:16:33.744Z,99.90
2022-09-07T06:19:06.670Z,99.90
2022-09-07T06:21:38.455Z,99.90
2022-09-07T06:24:06.768Z,99.90
2022-09-07T06:26:33.833Z,99.90
2022-09-07T06:29:03.358Z,99.90
2022-09-07T06:31:30.754Z,99.90
2022-09-07T06:33:58.708Z,99.90
2022-09-07T06:36:27.846Z,99.90
2022-09-07T06:38:58.903Z,99.90
2022-09-07T06:44:15.598Z,99.90
2022-09-07T06:49:29.207Z,99.90
2022-09-07T06:51:56.109Z,99.90
2022-09-07T06:57:10.017Z,99.90
2022-09-07T06:59:38.596Z,99.90
2022-09-07T07:02:07.145Z,99.90
2022-09-07T07:04:39.613Z,99.90
2022-09-07T07:07:12.186Z,99.90
2022-09-07T07:09:39.880Z,99.90
2022-09-07T07:12:06.900Z,99.90
2022-09-07T07:14:36.484Z,99.90
2022-09-07T07:17:05.484Z,99.90
2022-09-07T07:19:32.294Z,99.90
2022-09-07T07:22:18.324Z,99.90
2022-09-07T07:24:45.821Z,99.90
2022-09-07T07:27:12.610Z,99.90
2022-09-07T07:29:39.360Z,99.90
2022-09-07T07:32:06.165Z,99.90
2022-09-07T07:34:33.025Z,99.90
2022-09-07T07:36:59.919Z,99.90
2022-09-07T07:42:13.367Z,99.90
2022-09-07T07:44:40.115Z,99.90
2022-09-07T07:47:06.988Z,99.90
2022-09-07T07:49:33.717Z,99.90
2022-09-07T07:54:48.068Z,99.90
2022-09-07T07:57:16.721Z,99.90
2022-09-07T07:59:43.440Z,99.90
2022-09-07T08:02:16.333Z,99.90
2022-09-07T08:04:43.483Z,99.90
2022-09-07T08:07:15.640Z,99.90
2022-09-07T08:09:45.568Z,99.90
2022-09-07T08:12:18.980Z,99.90
2022-09-07T08:14:48.118Z,99.90
2022-09-07T08:17:17.333Z,99.90
2022-09-07T08:19:45.231Z,99.90
2022-09-07T08:22:13.184Z,99.90
2022-09-07T08:24:40.253Z,99.90
2022-09-07T08:27:08.981Z,99.90
2022-09-07T08:29:35.855Z,99.80
2022-09-07T08:32:06.376Z,98.90
2022-09-07T08:34:36.122Z,99.20
2022-09-07T08:37:03.465Z,99.50
2022-09-07T08:39:30.961Z,98.50
2022-09-07T08:42:37.577Z,97.70
2022-09-07T08:45:11.692Z,97.20
2022-09-07T08:47:47.726Z,96.50
2022-09-07T08:50:40.409Z,97.20
2022-09-07T08:53:16.377Z,95.70
2022-09-07T08:55:55.320Z,94.30
2022-09-07T08:58:50.579Z,92.90
2022-09-07T09:01:41.181Z,93.30
2022-09-07T09:04:24.737Z,93.70
2022-09-07T09:07:28.969Z,93.80
2022-09-07T09:10:33.346Z,92.30
2022-09-07T09:13:35.584Z,91.40
2022-09-07T09:16:14.252Z,90.80
2022-09-07T09:18:46.401Z,90.30
2022-09-07T09:21:18.604Z,88.00
2022-09-07T09:23:52.085Z,86.10
2022-09-07T09:26:28.555Z,86.10
2022-09-07T09:28:55.286Z,82.30
2022-09-07T09:31:29.319Z,79.10
2022-09-07T09:34:05.048Z,80.20
2022-09-07T09:36:39.846Z,81.10
2022-09-07T09:39:38.108Z,81.20
2022-09-07T09:42:22.263Z,78.60
2022-09-07T09:44:50.187Z,78.30
2022-09-07T09:47:32.606Z,76.70
2022-09-07T09:50:06.624Z,72.90
2022-09-07T09:52:47.570Z,74.40
2022-09-07T09:55:37.469Z,75.10
2022-09-07T10:01:35.979Z,73.40
2022-09-07T10:04:25.134Z,72.90
2022-09-07T10:07:25.786Z,71.80
2022-09-07T10:10:16.030Z,70.20
2022-09-07T10:12:46.083Z,70.60
2022-09-07T10:15:40.017Z,70.30
2022-09-07T10:18:18.531Z,69.30
2022-09-07T10:20:45.442Z,69.70
2022-09-07T10:23:27.397Z,65.90
2022-09-07T10:25:54.095Z,64.60
2022-09-07T10:28:24.446Z,64.50
2022-09-07T10:31:22.033Z,65.40
2022-09-07T10:34:26.441Z,65.80
2022-09-07T10:37:10.184Z,64.20
2022-09-07T10:39:43.767Z,64.60
2022-09-07T10:42:29.454Z,64.70
2022-09-07T10:45:19.069Z,65.70
2022-09-07T10:48:06.831Z,67.40
2022-09-07T10:50:50.036Z,68.60
2022-09-07T10:57:31.206Z,67.90
2022-09-07T11:00:12.853Z,67.20
2022-09-07T11:03:30.121Z,66.80
2022-09-07T11:06:21.928Z,66.50
2022-09-07T11:09:16.732Z,61.80
2022-09-07T11:12:17.330Z,61.30
2022-09-07T11:15:02.093Z,60.20
2022-09-07T11:17:30.793Z,61.20
2022-09-07T11:20:28.594Z,60.40
2022-09-07T11:23:28.191Z,59.60
2022-09-07T11:26:01.220Z,60.20
2022-09-07T11:31:48.456Z,62.10
2022-09-07T11:34:55.439Z,61.60
2022-09-07T11:37:47.027Z,62.30
2022-09-07T11:40:31.532Z,60.80
2022-09-07T11:43:24.674Z,60.30
2022-09-07T11:46:04.692Z,58.90
2022-09-07T11:48:48.421Z,58.70
2022-09-07T11:51:26.455Z,57.30
2022-09-07T11:54:03.757Z,56.80
2022-09-07T11:56:38.201Z,55.70
2022-09-07T11:59:36.616Z,55.80
2022-09-07T12:03:00.226Z,56.40
2022-09-07T12:06:03.933Z,57.40
2022-09-07T12:09:21.887Z,56.70
2022-09-07T12:12:42.034Z,57.20
2022-09-07T12:15:44.188Z,57.30
2022-09-07T12:18:28.782Z,55.80
2022-09-07T12:20:55.752Z,57.00
2022-09-07T12:23:31.311Z,55.70
2022-09-07T12:26:35.500Z,56.40
2022-09-07T12:29:02.131Z,54.70
2022-09-07T12:32:52.427Z,54.90
2022-09-07T12:34:53.586Z,55.00
2022-09-07T12:37:39.945Z,53.90
2022-09-07T12:40:34.461Z,52.90
2022-09-07T12:43:13.385Z,53.60
2022-09-07T12:45:40.045Z,53.30
2022-09-07T12:48:15.871Z,52.70
2022-09-07T12:51:03.603Z,52.20
2022-09-07T12:53:33.964Z,51.10
2022-09-07T12:56:28.091Z,50.80
2022-09-07T12:59:20.332Z,51.30
2022-09-07T13:02:22.513Z,50.00
2022-09-07T13:05:21.547Z,50.10
2022-09-07T13:08:21.229Z,50.00
2022-09-07T13:10:48.066Z,50.10
2022-09-07T13:13:14.681Z,49.00
2022-09-07T13:16:13.647Z,48.60
2022-09-07T13:18:46.243Z,47.40
2022-09-07T13:21:14.859Z,46.40
2022-09-07T13:24:45.755Z,45.90
2022-09-07T13:27:10.376Z,45.40
2022-09-07T13:29:48.262Z,47.00
2022-09-07T13:35:25.198Z,47.40
2022-09-07T13:38:03.913Z,46.30
2022-09-07T13:40:39.051Z,47.00
2022-09-07T13:43:16.292Z,48.20
2022-09-07T13:45:55.063Z,46.70
2022-09-07T13:49:06.694Z,47.10
2022-09-07T13:51:54.087Z,46.20
2022-09-07T13:55:12.594Z,46.40
2022-09-07T13:57:46.844Z,47.00
2022-09-07T14:00:16.775Z,47.50
2022-09-07T14:02:44.156Z,48.00
2022-09-07T14:05:18.401Z,48.70
2022-09-07T14:07:46.172Z,47.30
2022-09-07T14:10:23.117Z,47.90
2022-09-07T14:13:06.310Z,46.40
2022-09-07T14:15:40.659Z,43.10
2022-09-07T14:18:29.631Z,38.20
2022-09-07T14:20:57.308Z,35.10
2022-09-07T14:23:29.841Z,32.20
2022-09-07T14:26:22.956Z,29.90
2022-09-07T14:28:54.197Z,28.50
2022-09-07T14:31:24.148Z,28.70
2022-09-07T14:34:00.842Z,28.50
2022-09-07T14:36:46.461Z,29.10
2022-09-07T14:39:16.681Z,30.50
2022-09-07T14:41:44.484Z,33.80
2022-09-07T14:44:35.415Z,35.70
2022-09-07T14:47:35.647Z,36.90
2022-09-07T14:50:10.590Z,38.40
2022-09-07T14:55:45.415Z,40.80
2022-09-07T14:58:15.766Z,42.90
2022-09-07T15:03:43.644Z,42.30
2022-09-07T15:07:01.028Z,43.60
2022-09-07T15:08:59.367Z,43.30
2022-09-07T15:11:34.281Z,42.00
2022-09-07T15:14:20.493Z,43.60
2022-09-07T15:19:50.589Z,42.50
2022-09-07T15:22:19.364Z,41.90
2022-09-07T15:24:50.548Z,40.20
2022-09-07T15:27:29.878Z,39.30
2022-09-07T15:29:57.105Z,39.10
2022-09-07T15:32:24.776Z,38.10
2022-09-07T15:34:52.317Z,39.80
2022-09-07T15:40:22.758Z,39.90
2022-09-07T15:43:19.667Z,40.00
2022-09-07T15:45:39.675Z,40.40
2022-09-07T15:48:07.519Z,42.30
2022-09-07T15:50:35.180Z,43.10
2022-09-07T15:53:03.137Z,42.20
2022-09-07T15:55:33.093Z,42.10
2022-09-07T15:58:11.586Z,43.10
2022-09-07T16:00:43.685Z,44.20
2022-09-07T16:03:12.344Z,45.30
2022-09-07T16:05:44.456Z,45.90
2022-09-07T16:08:32.720Z,45.90
2022-09-07T16:11:18.459Z,45.60
2022-09-07T16:13:48.162Z,45.80
2022-09-07T16:16:16.240Z,45.80
2022-09-07T16:18:46.917Z,47.50
2022-09-07T16:21:15.552Z,48.20
2022-09-07T16:23:47.765Z,48.00
2022-09-07T16:26:16.555Z,48.40
2022-09-07T16:28:48.915Z,49.00
2022-09-07T16:31:26.369Z,50.00
2022-09-07T16:33:54.734Z,50.50
2022-09-07T16:36:25.488Z,50.40
2022-09-07T16:38:59.862Z,49.70
2022-09-07T16:41:31.831Z,50.40
2022-09-07T16:43:59.764Z,51.00
2022-09-07T16:46:30.847Z,52.50
2022-09-07T16:48:58.051Z,53.30
2022-09-07T16:51:24.926Z,54.50
2022-09-07T16:53:55.562Z,54.90
2022-09-07T16:56:25.867Z,55.80
2022-09-07T16:59:06.060Z,57.00
2022-09-07T17:01:35.465Z,58.00
2022-09-07T17:04:08.020Z,58.70
2022-09-07T17:06:37.853Z,59.40
2022-09-07T17:09:05.711Z,59.90
2022-09-07T17:11:35.541Z,60.00
2022-09-07T17:14:05.556Z,60.50
2022-09-07T17:16:37.292Z,61.10
2022-09-07T17:21:53.545Z,63.30
2022-09-07T17:24:20.667Z,64.10
2022-09-07T17:26:47.782Z,64.80
2022-09-07T17:29:15.034Z,65.30
2022-09-07T17:34:31.923Z,66.50
2022-09-07T17:37:00.497Z,67.70
2022-09-07T17:39:27.762Z,68.00
2022-09-07T17:41:54.913Z,68.30
2022-09-07T17:44:23.240Z,68.80
2022-09-07T17:46:51.261Z,69.80
2022-09-07T17:49:18.040Z,70.20
2022-09-07T17:51:45.886Z,71.40
2022-09-07T17:54:17.280Z,72.00
2022-09-07T17:56:45.037Z,72.30
2022-09-07T18:01:59.643Z,72.60
2022-09-07T18:04:27.180Z,73.20
2022-09-07T18:06:54.960Z,73.70
2022-09-07T18:09:21.816Z,74.20
2022-09-07T18:11:50.047Z,74.70
2022-09-07T18:14:18.579Z,75.30
2022-09-07T18:16:49.364Z,75.90
2022-09-07T18:19:18.227Z,76.50
2022-09-07T18:21:46.056Z,76.80
2022-09-07T18:24:24.037Z,77.20
2022-09-07T18:26:53.570Z,77.80
2022-09-07T18:29:30.188Z,78.10
2022-09-07T18:32:00.280Z,78.30
2022-09-07T18:34:28.569Z,78.90
2022-09-07T18:36:55.417Z,79.60
2022-09-07T18:39:22.660Z,79.90
2022-09-07T18:41:49.404Z,80.60
2022-09-07T18:47:02.862Z,82.50
2022-09-07T18:49:29.619Z,83.50
2022-09-07T18:54:43.028Z,85.30
2022-09-07T18:57:09.733Z,86.20
2022-09-07T18:59:36.463Z,86.80
2022-09-07T19:02:06.252Z,87.90
2022-09-07T19:07:24.885Z,90.00
2022-09-07T19:09:54.314Z,90.40
2022-09-07T19:12:21.057Z,90.60
2022-09-07T19:14:47.749Z,91.00
2022-09-07T19:17:14.476Z,91.60
2022-09-07T19:19:41.971Z,92.10
2022-09-07T19:22:08.669Z,92.60
2022-09-07T19:24:35.378Z,92.90
2022-09-07T19:27:02.080Z,93.20
2022-09-07T19:29:29.017Z,93.50
2022-09-07T19:32:05.350Z,93.70
2022-09-07T19:34:41.428Z,93.70
2022-09-07T19:37:10.811Z,93.70
2022-09-07T19:39:37.956Z,94.00
2022-09-07T19:42:06.510Z,94.20
2022-09-07T19:44:33.555Z,94.40
2022-09-07T19:47:00.749Z,94.60
2022-09-07T19:49:28.489Z,94.80
2022-09-07T19:51:55.546Z,95.00
2022-09-07T19:54:22.454Z,95.20
2022-09-07T19:56:49.164Z,95.60
2022-09-07T19:59:16.084Z,95.80
2022-09-07T20:01:46.224Z,96.00
2022-09-07T20:04:20.455Z,96.30
2022-09-07T20:06:49.933Z,96.60
2022-09-07T20:09:19.705Z,96.90
2022-09-07T20:11:47.950Z,97.10
2022-09-07T20:14:16.323Z,97.30
2022-09-07T20:16:43.819Z,97.50
2022-09-07T20:19:14.654Z,97.80
2022-09-07T20:21:42.322Z,98.10
2022-09-07T20:24:12.176Z,98.30
2022-09-07T20:26:39.150Z,98.50
2022-09-07T20:29:26.107Z,98.70
2022-09-07T20:31:53.619Z,98.80
2022-09-07T20:34:20.476Z,99.10
2022-09-07T20:36:50.419Z,99.40
2022-09-07T20:39:17.537Z,99.70
2022-09-07T20:41:44.375Z,99.90
2022-09-07T20:44:11.352Z,99.90
2022-09-07T20:46:38.413Z,99.90
2022-09-07T20:49:05.286Z,99.90
2022-09-07T20:51:32.603Z,99.90
2022-09-07T20:53:59.482Z,99.90
2022-09-07T20:56:29.340Z,99.90
2022-09-07T20:59:01.833Z,99.90
2022-09-07T21:01:30.863Z,99.90
2022-09-07T21:04:00.448Z,99.90
2022-09-07T21:06:28.633Z,99.90
2022-09-07T21:08:57.206Z,99.90
2022-09-07T21:11:28.278Z,99.90
2022-09-07T21:14:06.018Z,99.90
2022-09-07T21:16:34.198Z,99.90
2022-09-07T21:19:03.132Z,99.90
2022-09-07T21:21:40.370Z,99.90
2022-09-07T21:24:19.722Z,99.90
2022-09-07T21:26:48.721Z,99.90
2022-09-07T21:29:23.154Z,99.90
2022-09-07T21:31:53.260Z,99.90
2022-09-07T21:34:20.602Z,99.90
2022-09-07T21:36:47.539Z,99.90
2022-09-07T21:39:15.925Z,99.90
2022-09-07T21:41:44.299Z,99.90
2022-09-07T21:44:15.925Z,99.90
2022-09-07T21:46:43.375Z,99.90
2022-09-07T21:49:10.786Z,99.90
2022-09-07T21:51:37.923Z,99.90
2022-09-07T21:54:04.637Z,99.90
2022-09-07T21:56:31.791Z,99.90
2022-09-07T21:59:01.284Z,99.90
2022-09-07T22:01:29.770Z,99.90
2022-09-07T22:04:00.727Z,99.90
2022-09-07T22:06:28.355Z,99.90
2022-09-07T22:08:55.777Z,99.90
2022-09-07T22:11:26.373Z,99.90
2022-09-07T22:14:03.106Z,99.90
2022-09-07T22:16:31.928Z,99.90
2022-09-07T22:18:58.862Z,99.90
2022-09-07T22:21:28.723Z,99.90
2022-09-07T22:23:59.641Z,99.90
2022-09-07T22:26:30.199Z,99.90
2022-09-07T22:28:58.008Z,99.90
2022-09-07T22:31:31.819Z,99.90
2022-09-07T22:34:01.513Z,99.90
2022-09-07T22:36:38.699Z,99.90
2022-09-07T22:39:10.179Z,99.90
2022-09-07T22:41:39.190Z,99.90
2022-09-07T22:44:09.994Z,99.90
2022-09-07T22:46:39.431Z,99.90
2022-09-07T22:49:07.688Z,99.90
2022-09-07T22:51:34.553Z,99.90
2022-09-07T22:54:01.606Z,99.90
2022-09-07T22:56:31.711Z,99.90
2022-09-07T22:59:01.982Z,99.90
2022-09-07T23:01:30.855Z,99.90
2022-09-07T23:03:58.377Z,99.90
2022-09-07T23:06:30.232Z,99.90
2022-09-07T23:09:00.863Z,99.90
2022-09-07T23:11:28.386Z,99.90
2022-09-07T23:13:59.462Z,99.90
2022-09-07T23:16:27.971Z,99.90
2022-09-07T23:18:57.979Z,99.90
2022-09-07T23:21:25.576Z,99.90
2022-09-07T23:23:55.597Z,99.90
2022-09-07T23:26:24.598Z,99.90
2022-09-07T23:28:54.200Z,99.90
2022-09-07T23:31:22.735Z,99.90
2022-09-07T23:33:50.176Z,99.90
2022-09-07T23:36:18.311Z,99.90
2022-09-07T23:38:46.379Z,99.90
2022-09-07T23:41:14.101Z,99.90
2022-09-07T23:43:41.772Z,99.90
2022-09-07T23:46:10.544Z,99.90
2022-09-07T23:48:37.437Z,99.90
2022-09-07T23:51:04.566Z,99.90
2022-09-07T23:53:31.549Z,99.90
2022-09-07T23:55:58.582Z,99.90
2022-09-07T23:58:25.382Z,99.90
